Time;durP1;ratioP1;P1;durP2;ratioP2;P2;SDS_P1;SDS_P2;PMS_P1;PMS_P2;Temp;Humidity;BMP_temperature;BMP_pressure;BME280_temperature;BME280_humidity;BME280_pressure;Samples;Min_cycle;Max_cycle;Signal;HPM_P1;HPM_P2
2023/02/26 00:01:51;;;;;;;7.53;2.20;;;3.00;99.90;;;;;;4943806;28;36691;-78
2023/02/26 00:04:17;;;;;;;10.40;2.30;;;3.00;99.90;;;;;;4950366;28;38263;-78
2023/02/26 00:06:51;;;;;;;4.70;1.93;;;2.90;99.90;;;;;;4950859;28;40343;-79
2023/02/26 00:09:17;;;;;;;7.23;1.87;;;2.90;99.90;;;;;;4956600;28;39028;-79
2023/02/26 00:11:45;;;;;;;4.10;1.80;;;3.00;99.90;;;;;;4941696;28;36910;-78
2023/02/26 00:14:13;;;;;;;9.27;1.77;;;3.10;99.90;;;;;;4947146;28;36346;-78
2023/02/26 00:16:40;;;;;;;11.60;2.13;;;3.10;99.90;;;;;;4940758;28;37999;-78
2023/02/26 00:19:09;;;;;;;13.27;2.27;;;3.20;99.90;;;;;;4945383;28;38437;-78
2023/02/26 00:21:35;;;;;;;7.83;2.20;;;3.20;99.90;;;;;;4947462;28;37047;-78
2023/02/26 00:24:05;;;;;;;8.07;2.67;;;3.20;99.90;;;;;;4957808;28;36896;-77
2023/02/26 00:26:33;;;;;;;15.33;2.37;;;3.20;99.90;;;;;;4942421;28;37725;-78
2023/02/26 00:28:59;;;;;;;6.23;1.63;;;3.10;99.90;;;;;;4949356;28;37533;-78
2023/02/26 00:31:26;;;;;;;11.87;1.83;;;3.20;99.90;;;;;;4941674;28;37061;-79
2023/02/26 00:33:53;;;;;;;7.43;1.73;;;3.20;99.90;;;;;;4956849;28;36906;-78
2023/02/26 00:36:24;;;;;;;14.10;1.87;;;3.20;99.90;;;;;;4955887;28;37879;-78
2023/02/26 00:39:25;;;;;;;6.87;2.00;;;3.30;99.90;;;;;;4954630;28;38678;-78
2023/02/26 00:41:51;;;;;;;7.93;1.50;;;3.30;99.90;;;;;;4954621;28;48890;-79
2023/02/26 00:44:18;;;;;;;8.10;1.87;;;3.30;99.90;;;;;;4939050;28;36307;-78
2023/02/26 00:47:23;;;;;;;6.87;1.60;;;3.40;99.90;;;;;;4959986;28;38574;-78
2023/02/26 00:50:15;;;;;;;10.20;2.00;;;3.30;99.90;;;;;;4947561;28;46995;-78
2023/02/26 00:52:50;;;;;;;5.82;1.50;;;3.30;99.90;;;;;;4954373;28;48484;-78
2023/02/26 00:55:17;;;;;;;7.13;1.83;;;3.20;99.90;;;;;;4942120;28;36276;-79
2023/02/26 00:57:43;;;;;;;6.90;1.73;;;3.10;99.90;;;;;;4946784;28;37818;-78
2023/02/26 01:00:10;;;;;;;9.10;1.87;;;3.10;99.90;;;;;;4958033;28;38510;-78
2023/02/26 01:02:37;;;;;;;6.30;1.73;;;3.00;99.90;;;;;;4956890;28;37563;-78
2023/02/26 01:05:04;;;;;;;8.33;1.97;;;2.90;99.90;;;;;;4955386;28;37977;-78
2023/02/26 01:07:46;;;;;;;9.43;1.53;;;2.90;99.90;;;;;;4967017;28;40348;-78
2023/02/26 01:10:13;;;;;;;10.38;1.63;;;2.90;99.90;;;;;;4962903;28;39229;-78
2023/02/26 01:12:40;;;;;;;7.53;1.73;;;2.80;99.90;;;;;;4950768;28;37942;-78
2023/02/26 01:15:07;;;;;;;9.83;1.30;;;2.80;99.90;;;;;;4936955;28;36241;-78
2023/02/26 01:17:53;;;;;;;7.10;1.10;;;2.90;99.90;;;;;;4954032;28;38995;-79
2023/02/26 01:20:34;;;;;;;5.83;1.73;;;3.00;99.90;;;;;;4953214;28;38048;-78
2023/02/26 01:23:08;;;;;;;8.67;1.43;;;3.00;99.90;;;;;;4927150;28;36859;-79
2023/02/26 01:25:58;;;;;;;4.07;1.50;;;3.20;99.90;;;;;;4957307;28;48831;-78
2023/02/26 01:28:26;;;;;;;6.67;1.07;;;3.30;99.90;;;;;;4955082;28;38538;-78
2023/02/26 01:30:55;;;;;;;7.40;1.33;;;3.40;99.90;;;;;;4949735;28;38350;-78
2023/02/26 01:33:37;;;;;;;7.03;1.40;;;3.50;99.90;;;;;;4960966;28;38666;-78
2023/02/26 01:36:17;;;;;;;3.28;0.80;;;3.60;99.90;;;;;;4959130;28;38381;-78
2023/02/26 01:38:48;;;;;;;7.53;1.27;;;3.60;99.90;;;;;;4954562;28;38231;-78
2023/02/26 01:41:39;;;;;;;7.83;1.13;;;3.60;99.90;;;;;;4967911;28;38531;-78
2023/02/26 01:44:35;;;;;;;8.10;1.43;;;3.60;99.90;;;;;;4948154;28;37681;-78
2023/02/26 01:47:13;;;;;;;5.50;1.43;;;3.70;99.90;;;;;;4953966;28;37219;-78
2023/02/26 01:49:39;;;;;;;8.17;1.40;;;3.70;99.90;;;;;;4954274;28;47099;-78
2023/02/26 01:52:26;;;;;;;4.23;1.10;;;3.60;99.90;;;;;;4941762;28;38196;-78
2023/02/26 01:54:52;;;;;;;7.43;1.33;;;3.60;99.90;;;;;;4957244;28;36612;-78
2023/02/26 01:57:20;;;;;;;9.50;2.30;;;3.60;99.90;;;;;;4961263;28;37369;-78
2023/02/26 01:59:50;;;;;;;6.50;1.67;;;3.50;99.90;;;;;;4947054;28;37803;-78
2023/02/26 02:02:19;;;;;;;15.33;1.83;;;3.50;99.90;;;;;;5422024;23;37748;-77
2023/02/26 02:04:46;;;;;;;5.83;1.23;;;3.40;99.90;;;;;;4945099;28;38509;-77
2023/02/26 02:07:12;;;;;;;4.10;1.10;;;3.40;99.90;;;;;;4939387;28;37005;-77
2023/02/26 02:09:39;;;;;;;7.40;1.83;;;3.40;99.90;;;;;;4938090;28;38111;-78
2023/02/26 02:12:50;;;;;;;6.83;1.33;;;3.40;99.90;;;;;;4935828;28;37443;-77
2023/02/26 02:15:32;;;;;;;4.37;1.10;;;3.30;99.90;;;;;;4924444;28;37611;-78
2023/02/26 02:18:20;;;;;;;6.20;1.43;;;3.30;99.90;;;;;;4943027;28;37453;-78
2023/02/26 02:20:59;;;;;;;6.80;1.43;;;3.20;99.90;;;;;;4948494;28;48463;-77
2023/02/26 02:23:25;;;;;;;6.47;1.40;;;3.10;99.90;;;;;;4951872;28;38957;-77
2023/02/26 02:26:03;;;;;;;7.27;1.43;;;3.00;99.90;;;;;;4937330;28;36916;-77
2023/02/26 02:28:44;;;;;;;9.50;1.67;;;3.00;99.90;;;;;;4951844;28;49114;-78
2023/02/26 02:31:38;;;;;;;5.90;1.27;;;3.00;99.90;;;;;;4936800;28;37860;-77
2023/02/26 02:34:33;;;;;;;8.93;1.70;;;2.90;99.90;;;;;;4928669;28;38341;-77
2023/02/26 02:37:22;;;;;;;7.60;1.53;;;2.80;99.90;;;;;;4951885;28;39179;-77
2023/02/26 02:39:53;;;;;;;6.13;1.03;;;2.80;99.90;;;;;;4926560;28;47059;-79
2023/02/26 02:42:25;;;;;;;9.30;1.60;;;2.70;99.90;;;;;;4953763;28;38753;-78
2023/02/26 02:44:57;;;;;;;5.72;1.15;;;2.70;99.90;;;;;;4956932;28;39637;-78
2023/02/26 02:47:25;;;;;;;8.00;1.42;;;2.60;99.90;;;;;;4950870;28;38345;-78
2023/02/26 02:49:54;;;;;;;7.13;1.30;;;2.70;99.90;;;;;;4946444;28;36758;-78
2023/02/26 02:52:40;;;;;;;7.23;0.73;;;2.70;99.90;;;;;;4954658;28;38396;-78
2023/02/26 02:55:21;;;;;;;7.57;1.00;;;2.80;99.90;;;;;;4942692;28;38538;-77
2023/02/26 02:58:10;;;;;;;9.90;1.00;;;2.80;99.90;;;;;;4948498;28;38934;-78
2023/02/26 03:00:42;;;;;;;3.37;1.10;;;2.80;99.90;;;;;;4924270;28;47236;-78
2023/02/26 03:03:15;;;;;;;5.03;1.02;;;2.70;99.90;;;;;;4944789;28;39388;-78
2023/02/26 03:05:42;;;;;;;12.07;1.23;;;2.70;99.90;;;;;;4953318;28;38732;-78
2023/02/26 03:08:12;;;;;;;3.97;0.90;;;2.60;99.90;;;;;;4937036;28;38264;-78
2023/02/26 03:10:38;;;;;;;4.93;1.10;;;2.60;99.90;;;;;;4934385;28;37456;-78
2023/02/26 03:13:05;;;;;;;8.13;1.23;;;2.60;99.90;;;;;;4943732;28;37714;-78
2023/02/26 03:16:00;;;;;;;5.00;2.20;;;2.60;99.90;;;;;;4954134;28;39207;-78
2023/02/26 03:18:49;;;;;;;6.43;1.00;;;2.60;99.90;;;;;;4933653;28;47103;-78
2023/02/26 03:21:43;;;;;;;5.10;0.87;;;2.60;99.90;;;;;;4945416;28;37043;-78
2023/02/26 03:24:14;;;;;;;5.77;1.33;;;2.50;99.90;;;;;;4950626;28;39828;-78
2023/02/26 03:26:48;;;;;;;7.60;1.07;;;2.40;99.90;;;;;;4939432;28;37921;-78
2023/02/26 03:29:29;;;;;;;3.57;1.03;;;2.40;99.90;;;;;;4934308;28;36587;-78
2023/02/26 03:32:09;;;;;;;3.30;0.73;;;2.20;99.90;;;;;;4944133;28;35948;-78
2023/02/26 03:34:48;;;;;;;10.80;1.00;;;2.20;99.90;;;;;;4952050;28;48745;-78
2023/02/26 03:37:33;;;;;;;6.03;1.63;;;2.20;99.90;;;;;;4947739;28;38356;-78
2023/02/26 03:40:04;;;;;;;6.33;1.40;;;2.20;99.90;;;;;;4935950;28;36945;-78
2023/02/26 03:42:36;;;;;;;9.80;1.00;;;2.10;99.90;;;;;;4954748;28;47817;-78
2023/02/26 03:45:09;;;;;;;11.10;0.97;;;2.00;99.90;;;;;;4941252;28;37622;-78
2023/02/26 03:47:37;;;;;;;9.67;1.17;;;2.00;99.90;;;;;;4955007;28;48829;-78
2023/02/26 03:50:23;;;;;;;4.93;0.70;;;2.00;99.90;;;;;;4940146;28;37625;-78
2023/02/26 03:52:51;;;;;;;6.53;1.70;;;1.90;99.90;;;;;;4954567;28;49666;-78
2023/02/26 03:55:30;;;;;;;4.67;1.10;;;1.90;99.90;;;;;;4941004;28;38698;-78
2023/02/26 03:57:57;;;;;;;7.30;1.27;;;1.90;99.90;;;;;;4954588;28;37897;-78
2023/02/26 04:00:24;;;;;;;6.87;1.10;;;1.90;99.90;;;;;;4941531;28;38150;-78
2023/02/26 04:03:09;;;;;;;4.67;1.10;;;1.90;99.90;;;;;;4947355;28;37016;-78
2023/02/26 04:05:39;;;;;;;11.10;1.73;;;1.80;99.90;;;;;;4934279;28;47288;-78
2023/02/26 04:08:06;;;;;;;4.00;1.30;;;1.80;99.90;;;;;;4939569;28;37480;-78
2023/02/26 04:10:38;;;;;;;4.83;1.10;;;1.70;99.90;;;;;;4950312;28;37059;-78
2023/02/26 04:13:04;;;;;;;8.27;1.60;;;1.60;99.90;;;;;;4955866;28;37302;-78
2023/02/26 04:15:31;;;;;;;7.10;1.00;;;1.40;99.90;;;;;;4953107;28;39119;-78
2023/02/26 04:17:57;;;;;;;9.80;1.30;;;1.40;99.90;;;;;;4938558;28;38575;-78
2023/02/26 04:20:23;;;;;;;6.07;1.30;;;1.30;99.90;;;;;;4954543;28;37484;-78
2023/02/26 04:22:49;;;;;;;7.70;1.40;;;1.30;99.90;;;;;;4939724;28;36273;-78
2023/02/26 04:25:15;;;;;;;11.70;2.50;;;1.20;99.90;;;;;;4940066;28;39767;-78
2023/02/26 04:27:41;;;;;;;15.13;1.77;;;1.20;99.90;;;;;;4945518;28;37287;-78
2023/02/26 04:30:08;;;;;;;8.47;1.33;;;1.30;99.90;;;;;;4943117;28;38243;-77
2023/02/26 04:32:34;;;;;;;11.00;2.47;;;1.30;99.90;;;;;;4953897;28;36950;-78
2023/02/26 04:35:00;;;;;;;5.23;1.10;;;1.30;99.90;;;;;;4955501;28;38623;-78
2023/02/26 04:37:26;;;;;;;10.47;1.30;;;1.30;99.90;;;;;;4940842;28;37447;-77
2023/02/26 04:39:52;;;;;;;5.50;1.00;;;1.30;99.90;;;;;;4957217;28;37940;-78
2023/02/26 04:42:19;;;;;;;12.80;1.63;;;1.30;99.90;;;;;;4941680;28;37223;-78
2023/02/26 04:44:45;;;;;;;7.67;1.40;;;1.30;99.90;;;;;;4947623;28;37631;-78
2023/02/26 04:47:11;;;;;;;9.93;1.20;;;1.30;99.90;;;;;;4954545;28;39440;-78
2023/02/26 04:49:37;;;;;;;9.67;1.43;;;1.20;99.90;;;;;;4945504;28;37506;-78
2023/02/26 04:52:03;;;;;;;11.50;1.10;;;1.20;99.90;;;;;;4955618;28;37561;-78
2023/02/26 04:54:29;;;;;;;7.20;1.53;;;1.20;99.90;;;;;;4941722;28;37781;-78
2023/02/26 04:56:55;;;;;;;7.43;1.20;;;1.20;99.90;;;;;;4953910;28;38194;-78
2023/02/26 04:59:21;;;;;;;7.90;1.13;;;1.20;99.90;;;;;;4950892;28;38071;-78
2023/02/26 05:01:47;;;;;;;7.90;1.90;;;1.10;99.90;;;;;;4940586;28;36290;-78
2023/02/26 05:04:14;;;;;;;8.50;2.60;;;1.10;99.90;;;;;;4961643;28;40028;-78
2023/02/26 05:06:40;;;;;;;9.23;1.37;;;1.00;99.90;;;;;;4966966;28;39073;-78
2023/02/26 05:09:06;;;;;;;5.20;1.17;;;0.90;99.90;;;;;;4966105;28;38720;-78
2023/02/26 05:11:33;;;;;;;7.90;1.50;;;0.90;99.90;;;;;;4967410;28;37367;-77
2023/02/26 05:13:59;;;;;;;9.13;1.17;;;0.90;99.90;;;;;;4958599;28;37871;-78
2023/02/26 05:16:25;;;;;;;6.97;1.53;;;0.90;99.90;;;;;;4957069;28;38758;-77
2023/02/26 05:18:51;;;;;;;7.97;1.50;;;0.90;99.90;;;;;;4949481;28;36742;-78
2023/02/26 05:21:17;;;;;;;7.30;1.27;;;0.90;99.90;;;;;;4946436;28;36018;-77
2023/02/26 05:23:43;;;;;;;7.57;1.33;;;0.80;99.90;;;;;;4946238;28;38992;-77
2023/02/26 05:26:09;;;;;;;6.17;0.97;;;0.90;99.90;;;;;;4943027;28;37257;-77
2023/02/26 05:28:36;;;;;;;8.43;2.20;;;0.80;99.90;;;;;;4954309;28;38326;-78
2023/02/26 05:31:03;;;;;;;6.77;1.47;;;0.80;99.90;;;;;;4944872;28;36085;-77
2023/02/26 05:33:29;;;;;;;7.97;1.63;;;0.80;99.90;;;;;;4957302;28;39096;-77
2023/02/26 05:35:56;;;;;;;8.20;1.37;;;0.80;99.90;;;;;;4932891;28;38615;-77
2023/02/26 05:38:22;;;;;;;8.20;1.67;;;0.70;99.90;;;;;;4939874;28;36906;-78
2023/02/26 05:40:48;;;;;;;5.90;1.40;;;0.60;99.90;;;;;;4956869;28;37329;-78
2023/02/26 05:43:15;;;;;;;9.87;1.47;;;0.50;99.90;;;;;;4957624;28;39211;-78
2023/02/26 05:45:41;;;;;;;9.43;1.37;;;0.50;99.90;;;;;;4931329;28;38418;-78
2023/02/26 05:48:07;;;;;;;4.83;1.00;;;0.50;99.90;;;;;;4960992;28;37593;-77
2023/02/26 05:50:33;;;;;;;8.73;1.20;;;0.50;99.90;;;;;;4948826;28;36790;-77
2023/02/26 05:52:59;;;;;;;11.67;1.10;;;0.50;99.90;;;;;;4960442;28;38887;-78
2023/02/26 05:55:25;;;;;;;9.13;1.20;;;0.60;99.90;;;;;;4947583;28;37965;-78
2023/02/26 05:57:51;;;;;;;7.13;1.43;;;0.70;99.90;;;;;;4965867;28;39318;-78
2023/02/26 06:00:18;;;;;;;8.27;1.30;;;0.70;99.90;;;;;;4969963;28;37108;-77
2023/02/26 06:02:44;;;;;;;5.73;1.50;;;0.70;99.90;;;;;;4965190;28;38661;-78
2023/02/26 06:05:10;;;;;;;10.07;1.33;;;0.60;99.90;;;;;;4946034;28;37055;-77
2023/02/26 06:07:36;;;;;;;9.33;1.30;;;0.70;99.90;;;;;;4949906;28;36648;-78
2023/02/26 06:10:03;;;;;;;11.10;1.33;;;0.60;99.90;;;;;;4955751;28;36728;-78
2023/02/26 06:12:29;;;;;;;7.47;2.40;;;0.60;99.90;;;;;;4928147;28;37447;-77
2023/02/26 06:14:55;;;;;;;7.60;0.90;;;0.50;99.90;;;;;;4956292;28;39044;-78
2023/02/26 06:17:21;;;;;;;7.17;2.53;;;0.40;99.90;;;;;;4955966;28;37726;-78
2023/02/26 06:19:47;;;;;;;4.13;1.10;;;0.50;99.90;;;;;;4945108;28;36007;-78
2023/02/26 06:22:13;;;;;;;5.13;1.27;;;0.50;99.90;;;;;;4945846;28;37566;-77
2023/02/26 06:24:39;;;;;;;5.10;1.13;;;0.60;99.90;;;;;;4954661;28;38273;-79
2023/02/26 06:27:06;;;;;;;7.03;1.30;;;0.70;99.90;;;;;;4954694;28;38483;-77
2023/02/26 06:29:32;;;;;;;8.13;1.57;;;0.70;99.90;;;;;;4953494;28;36680;-80
2023/02/26 06:31:58;;;;;;;7.97;1.07;;;0.70;99.90;;;;;;4954355;28;38633;-79
2023/02/26 06:34:24;;;;;;;8.50;1.10;;;0.80;99.90;;;;;;4954428;28;39557;-77
2023/02/26 06:36:50;;;;;;;6.23;1.30;;;0.80;99.90;;;;;;4957321;28;37894;-80
2023/02/26 06:39:16;;;;;;;10.73;1.17;;;0.80;99.90;;;;;;4943748;28;36134;-77
2023/02/26 06:41:43;;;;;;;6.93;1.03;;;0.80;99.90;;;;;;4938706;28;20133;-77
2023/02/26 06:44:10;;;;;;;5.00;0.80;;;0.80;99.90;;;;;;4947731;28;37055;-78
2023/02/26 06:46:36;;;;;;;5.20;1.27;;;0.90;99.90;;;;;;4955679;28;37896;-78
2023/02/26 06:49:03;;;;;;;6.63;1.00;;;0.90;99.90;;;;;;4956621;28;37477;-77
2023/02/26 06:51:29;;;;;;;5.40;1.00;;;0.90;99.90;;;;;;4955095;28;37318;-78
2023/02/26 06:53:56;;;;;;;6.53;1.10;;;0.90;99.90;;;;;;4947681;28;37091;-78
2023/02/26 06:56:22;;;;;;;4.07;1.00;;;0.80;99.90;;;;;;4951267;28;37609;-77
2023/02/26 06:58:49;;;;;;;5.03;1.00;;;0.80;99.90;;;;;;4948985;28;37099;-80
2023/02/26 07:01:15;;;;;;;11.83;1.37;;;0.80;99.90;;;;;;4947168;28;37726;-79
2023/02/26 07:03:41;;;;;;;8.13;1.20;;;0.90;99.90;;;;;;4959265;28;38574;-80
2023/02/26 07:06:09;;;;;;;5.37;0.97;;;1.00;99.90;;;;;;4956206;28;37737;-80
2023/02/26 07:08:35;;;;;;;4.53;0.93;;;1.00;99.90;;;;;;4956715;28;37136;-82
2023/02/26 07:11:02;;;;;;;6.87;1.10;;;1.00;99.90;;;;;;4951227;28;38642;-79
2023/02/26 07:13:28;;;;;;;5.17;0.80;;;0.90;99.90;;;;;;4943833;28;38180;-78
2023/02/26 07:15:54;;;;;;;7.97;1.20;;;0.90;99.90;;;;;;4942908;28;38024;-78
2023/02/26 07:18:20;;;;;;;8.47;1.47;;;0.90;99.90;;;;;;4937204;28;35950;-78
2023/02/26 07:20:48;;;;;;;9.83;1.63;;;0.80;99.90;;;;;;4942714;28;37609;-80
2023/02/26 07:23:14;;;;;;;8.57;1.13;;;0.80;99.90;;;;;;4942444;28;39751;-78
2023/02/26 07:25:40;;;;;;;10.23;1.10;;;0.80;99.90;;;;;;4952432;28;37221;-79
2023/02/26 07:28:07;;;;;;;9.10;1.80;;;0.90;99.90;;;;;;4950632;28;37877;-78
2023/02/26 07:30:33;;;;;;;5.50;1.40;;;0.90;99.90;;;;;;4951013;28;38829;-79
2023/02/26 07:33:00;;;;;;;5.90;1.03;;;1.00;99.90;;;;;;4942744;28;37836;-80
2023/02/26 07:35:26;;;;;;;5.37;1.13;;;1.00;99.90;;;;;;4956370;28;39105;-79
2023/02/26 07:37:52;;;;;;;4.77;1.20;;;1.00;99.90;;;;;;4954652;28;37240;-80
2023/02/26 07:40:18;;;;;;;8.13;1.30;;;1.10;99.90;;;;;;4960817;28;39491;-80
2023/02/26 07:42:44;;;;;;;5.20;1.10;;;1.10;99.90;;;;;;4962564;28;38953;-79
2023/02/26 07:45:10;;;;;;;4.60;0.83;;;1.20;99.90;;;;;;4959676;28;39709;-79
2023/02/26 07:47:37;;;;;;;6.63;1.20;;;1.20;99.90;;;;;;4943539;28;37024;-79
2023/02/26 07:50:04;;;;;;;4.33;1.37;;;1.20;99.90;;;;;;4950068;28;38641;-79
2023/02/26 07:52:30;;;;;;;3.53;1.37;;;1.30;99.90;;;;;;4951258;28;48772;-80
2023/02/26 07:54:56;;;;;;;10.87;1.60;;;1.40;99.90;;;;;;4958978;28;40793;-81
2023/02/26 07:57:22;;;;;;;6.53;1.97;;;1.50;99.90;;;;;;4963345;28;38378;-80
2023/02/26 07:59:48;;;;;;;6.33;0.80;;;1.60;99.90;;;;;;4951871;28;37181;-80
2023/02/26 08:02:15;;;;;;;4.60;1.03;;;1.70;99.90;;;;;;4931237;28;37331;-79
2023/02/26 08:04:42;;;;;;;3.80;0.70;;;1.80;99.90;;;;;;4945690;28;39231;-80
2023/02/26 08:07:09;;;;;;;4.63;0.90;;;1.90;99.90;;;;;;4940953;28;36769;-77
2023/02/26 08:09:35;;;;;;;4.53;0.87;;;1.90;99.90;;;;;;4950776;28;38335;-77
2023/02/26 08:12:01;;;;;;;3.87;0.93;;;2.00;99.90;;;;;;4950541;28;38320;-77
2023/02/26 08:14:28;;;;;;;5.13;1.00;;;2.00;99.90;;;;;;4950940;28;48794;-77
2023/02/26 08:16:54;;;;;;;4.20;0.90;;;2.10;99.90;;;;;;4949470;28;36910;-79
2023/02/26 08:19:20;;;;;;;3.20;0.90;;;2.10;99.90;;;;;;4939434;28;39959;-79
2023/02/26 08:21:46;;;;;;;6.00;1.30;;;2.30;99.90;;;;;;4951162;28;38613;-79
2023/02/26 08:24:12;;;;;;;4.33;0.93;;;2.30;99.90;;;;;;4949738;28;37804;-78
2023/02/26 08:26:39;;;;;;;5.90;0.70;;;2.30;99.90;;;;;;4937593;28;36412;-79
2023/02/26 08:29:05;;;;;;;5.43;1.50;;;2.30;99.90;;;;;;4950565;28;39747;-77
2023/02/26 08:31:34;;;;;;;5.20;1.50;;;2.40;99.90;;;;;;4938228;28;37699;-77
2023/02/26 08:34:00;;;;;;;4.53;0.87;;;2.40;99.90;;;;;;4948450;28;39047;-77
2023/02/26 08:36:26;;;;;;;3.00;0.63;;;2.50;99.90;;;;;;4949617;28;38270;-77
2023/02/26 08:38:52;;;;;;;3.80;0.70;;;2.60;99.90;;;;;;4931459;28;39186;-77
2023/02/26 08:41:18;;;;;;;3.40;0.80;;;2.60;99.90;;;;;;4950998;28;39165;-78
2023/02/26 08:43:44;;;;;;;7.50;0.80;;;2.70;99.90;;;;;;4956291;28;38214;-78
2023/02/26 08:46:10;;;;;;;5.17;0.90;;;2.70;99.90;;;;;;4955156;28;36034;-78
2023/02/26 08:48:36;;;;;;;3.03;0.80;;;2.70;99.90;;;;;;4959910;28;38762;-78
2023/02/26 08:51:03;;;;;;;3.97;0.70;;;2.80;99.90;;;;;;4950458;28;36927;-76
2023/02/26 08:53:29;;;;;;;3.47;0.60;;;2.80;99.90;;;;;;4948955;28;36862;-77
2023/02/26 08:55:55;;;;;;;5.00;0.70;;;2.90;99.90;;;;;;4941935;28;35788;-77
2023/02/26 08:58:21;;;;;;;5.53;0.70;;;2.90;99.90;;;;;;4942450;28;37448;-77
2023/02/26 09:00:47;;;;;;;5.83;1.00;;;2.90;99.90;;;;;;4939707;28;37424;-77
2023/02/26 09:03:14;;;;;;;3.87;0.70;;;3.00;99.90;;;;;;4946205;28;38401;-77
2023/02/26 09:05:40;;;;;;;3.97;1.00;;;3.00;99.90;;;;;;4934539;28;37179;-76
2023/02/26 09:08:07;;;;;;;1.50;0.50;;;3.00;99.90;;;;;;4933464;28;38524;-77
2023/02/26 09:10:33;;;;;;;5.00;1.00;;;3.10;99.90;;;;;;4927944;29;37280;-79
2023/02/26 09:12:59;;;;;;;5.03;0.77;;;3.10;99.90;;;;;;4933197;29;36619;-79
2023/02/26 09:15:28;;;;;;;4.17;0.70;;;3.30;99.90;;;;;;4938717;28;37745;-79
2023/02/26 09:17:54;;;;;;;3.30;1.00;;;3.30;99.90;;;;;;4937380;28;38785;-80
2023/02/26 09:20:20;;;;;;;2.70;0.60;;;3.20;99.90;;;;;;4928823;28;38823;-78
2023/02/26 09:22:46;;;;;;;2.10;0.40;;;3.30;99.90;;;;;;4931114;29;39228;-77
2023/02/26 09:25:14;;;;;;;3.37;0.70;;;3.30;99.90;;;;;;4920084;29;36029;-77
2023/02/26 09:27:40;;;;;;;3.13;0.70;;;3.40;99.90;;;;;;4929402;28;39708;-79
2023/02/26 09:30:07;;;;;;;5.20;1.30;;;3.40;99.90;;;;;;4926870;28;39441;-77
2023/02/26 09:32:33;;;;;;;1.40;0.70;;;3.30;99.90;;;;;;4935834;28;38090;-78
2023/02/26 09:34:59;;;;;;;2.97;0.70;;;3.40;99.90;;;;;;4923529;29;36005;-79
2023/02/26 09:37:25;;;;;;;3.10;0.53;;;3.50;99.90;;;;;;4929613;29;37824;-77
2023/02/26 09:39:51;;;;;;;3.60;0.80;;;3.50;99.90;;;;;;4942192;28;38445;-77
2023/02/26 09:42:31;;;;;;;2.83;0.70;;;3.50;99.90;;;;;;4927023;29;36830;-77
2023/02/26 09:44:58;;;;;;;5.00;0.70;;;3.60;99.90;;;;;;4920110;29;35884;-77
2023/02/26 09:47:46;;;;;;;3.23;0.70;;;3.70;99.90;;;;;;4932639;28;38911;-77
2023/02/26 09:50:20;;;;;;;3.83;0.60;;;3.70;99.90;;;;;;4932680;28;39058;-77
2023/02/26 09:52:52;;;;;;;2.90;0.70;;;3.80;99.90;;;;;;4934673;28;38103;-77
2023/02/26 09:55:35;;;;;;;;;;;3.70;99.90;;;;;;4920630;29;36162;-77
2023/02/26 09:58:04;;;;;;;3.00;0.30;;;3.80;99.90;;;;;;4933177;29;39885;-77
2023/02/26 10:00:41;;;;;;;4.73;0.63;;;3.80;99.90;;;;;;4927139;28;48420;-77
2023/02/26 10:03:41;;;;;;;2.10;0.50;;;3.90;99.90;;;;;;4933591;28;37258;-77
2023/02/26 10:06:26;;;;;;;5.57;0.73;;;4.00;99.90;;;;;;4942403;28;36268;-77
2023/02/26 10:09:25;;;;;;;3.47;0.47;;;4.00;99.90;;;;;;4952376;28;38991;-77
2023/02/26 10:12:27;;;;;;;2.90;0.50;;;4.20;99.90;;;;;;4932446;28;47071;-77
2023/02/26 10:15:06;;;;;;;5.57;0.83;;;4.30;99.90;;;;;;4922856;28;46853;-78
2023/02/26 10:18:01;;;;;;;3.60;0.53;;;4.30;99.90;;;;;;4936816;28;47066;-77
2023/02/26 10:20:45;;;;;;;3.07;0.50;;;4.40;99.90;;;;;;4935918;28;46626;-76
2023/02/26 10:23:29;;;;;;;1.00;0.40;;;4.50;99.90;;;;;;4947711;28;39030;-77
2023/02/26 10:26:31;;;;;;;8.53;0.77;;;4.50;99.90;;;;;;4954516;28;38121;-77
2023/02/26 10:29:13;;;;;;;4.03;0.63;;;4.50;99.90;;;;;;4945872;28;48469;-77
2023/02/26 10:31:47;;;;;;;5.37;0.73;;;4.50;99.90;;;;;;4936170;28;46889;-77
2023/02/26 10:34:31;;;;;;;3.70;0.60;;;4.40;99.90;;;;;;4933630;28;37306;-78
2023/02/26 10:37:16;;;;;;;2.03;1.23;;;4.60;99.90;;;;;;4949652;28;36940;-77
2023/02/26 10:39:51;;;;;;;2.37;0.50;;;4.70;99.90;;;;;;4954367;28;49085;-78
2023/02/26 10:42:27;;;;;;;2.77;0.60;;;4.80;99.90;;;;;;4947934;28;37601;-77
2023/02/26 10:45:27;;;;;;;1.47;0.40;;;4.80;99.90;;;;;;4949887;28;37527;-77
2023/02/26 10:48:31;;;;;;;3.63;0.60;;;5.00;99.90;;;;;;4957803;28;48746;-77
2023/02/26 10:51:00;;;;;;;1.97;0.73;;;5.10;99.90;;;;;;4890611;29;47000;-78
2023/02/26 10:53:33;;;;;;;5.60;0.83;;;5.10;99.90;;;;;;4943069;28;38182;-76
2023/02/26 10:56:07;;;;;;;0.97;0.50;;;5.20;99.90;;;;;;4949196;28;37621;-77
2023/02/26 10:58:33;;;;;;;2.00;0.83;;;5.20;99.90;;;;;;4959575;28;49177;-78
2023/02/26 11:00:59;;;;;;;3.37;0.60;;;5.40;99.90;;;;;;4945581;28;36512;-78
2023/02/26 11:03:36;;;;;;;3.50;0.70;;;5.60;99.90;;;;;;4945341;28;39177;-77
2023/02/26 11:06:04;;;;;;;2.63;0.80;;;5.70;99.90;;;;;;4919835;29;39560;-77
2023/02/26 11:08:38;;;;;;;4.87;0.37;;;5.70;99.90;;;;;;4926841;28;39257;-77
2023/02/26 11:11:05;;;;;;;2.80;0.43;;;5.80;99.90;;;;;;4923273;28;37196;-77
2023/02/26 11:13:33;;;;;;;3.03;0.63;;;5.80;99.90;;;;;;4927046;29;37708;-78
2023/02/26 11:16:26;;;;;;;3.47;0.80;;;5.80;99.90;;;;;;4928968;29;38331;-78
2023/02/26 11:18:53;;;;;;;4.93;1.20;;;5.70;99.90;;;;;;4915710;29;47480;-78
2023/02/26 11:21:28;;;;;;;0.67;0.30;;;5.50;99.90;;;;;;4932076;28;38131;-78
2023/02/26 11:24:04;;;;;;;5.53;0.90;;;5.50;99.90;;;;;;4931546;28;38853;-78
2023/02/26 11:26:34;;;;;;;1.57;0.50;;;5.60;99.90;;;;;;4921689;29;47609;-77
2023/02/26 11:29:00;;;;;;;4.30;0.87;;;5.60;99.90;;;;;;4928385;29;37996;-78
2023/02/26 11:31:28;;;;;;;1.97;0.50;;;5.90;99.90;;;;;;4923118;29;36826;-78
2023/02/26 11:34:07;;;;;;;3.23;0.87;;;6.00;99.90;;;;;;4932472;28;38590;-78
2023/02/26 11:36:36;;;;;;;2.30;0.57;;;6.10;99.90;;;;;;4932173;28;49206;-78
2023/02/26 11:39:14;;;;;;;4.33;0.60;;;6.40;99.90;;;;;;4925488;28;38662;-77
2023/02/26 11:41:41;;;;;;;2.97;0.57;;;6.60;99.90;;;;;;4929799;28;38705;-78
2023/02/26 11:44:14;;;;;;;2.57;0.90;;;6.60;99.90;;;;;;4924198;28;37678;-78
2023/02/26 11:46:51;;;;;;;2.60;0.40;;;6.40;99.90;;;;;;4930081;28;38567;-78
2023/02/26 11:49:21;;;;;;;2.47;0.50;;;6.30;99.90;;;;;;4932010;28;37833;-78
2023/02/26 11:52:00;;;;;;;3.03;0.77;;;6.40;99.90;;;;;;4917382;29;36073;-78
2023/02/26 11:54:28;;;;;;;4.77;0.67;;;6.50;99.90;;;;;;4915432;29;38495;-78
2023/02/26 11:57:24;;;;;;;3.83;0.87;;;6.70;99.90;;;;;;4921009;29;38059;-78
2023/02/26 11:59:52;;;;;;;3.87;0.50;;;7.20;99.90;;;;;;4922103;28;48956;-78
2023/02/26 12:02:24;;;;;;;3.97;0.73;;;7.30;99.90;;;;;;4917191;29;36110;-78
2023/02/26 12:04:52;;;;;;;5.97;1.63;;;7.50;99.90;;;;;;4949370;28;39954;-78
2023/02/26 12:07:20;;;;;;;1.90;0.97;;;7.60;99.90;;;;;;4949321;28;38394;-78
2023/02/26 12:09:46;;;;;;;2.90;1.00;;;7.30;99.90;;;;;;4948547;28;36848;-78
2023/02/26 12:12:40;;;;;;;2.23;0.90;;;7.40;99.90;;;;;;4933578;28;36027;-78
2023/02/26 12:15:26;;;;;;;8.60;1.83;;;7.20;99.90;;;;;;4940256;28;39301;-78
2023/02/26 12:18:07;;;;;;;3.33;0.30;;;6.90;99.90;;;;;;4950990;28;37992;-79
2023/02/26 12:20:48;;;;;;;4.07;0.60;;;7.10;99.90;;;;;;4949880;28;49098;-78
2023/02/26 12:23:24;;;;;;;3.63;0.70;;;7.20;99.90;;;;;;4950549;28;35940;-78
2023/02/26 12:26:17;;;;;;;4.80;0.67;;;7.10;99.90;;;;;;4953976;28;39097;-78
2023/02/26 12:29:18;;;;;;;1.63;0.60;;;7.00;99.90;;;;;;4921450;28;49045;-77
2023/02/26 12:32:05;;;;;;;1.43;0.50;;;7.10;99.90;;;;;;4948931;28;48894;-77
2023/02/26 12:34:50;;;;;;;2.13;0.50;;;6.70;99.90;;;;;;4952429;28;48901;-78
2023/02/26 12:37:33;;;;;;;3.50;0.97;;;6.80;99.90;;;;;;4945691;28;39496;-78
2023/02/26 12:40:29;;;;;;;;;;;6.90;99.90;;;;;;4940626;28;37271;-78
2023/02/26 12:43:04;;;;;;;3.03;0.60;;;6.90;99.90;;;;;;4956150;28;48678;-78
2023/02/26 12:45:54;;;;;;;2.70;0.70;;;7.10;99.90;;;;;;4950420;28;48589;-78
2023/02/26 12:48:45;;;;;;;1.77;0.37;;;7.20;99.90;;;;;;4948813;28;39004;-78
2023/02/26 12:51:38;;;;;;;2.03;0.50;;;7.40;99.90;;;;;;4947752;28;39167;-78
2023/02/26 12:54:17;;;;;;;1.77;0.57;;;7.70;99.90;;;;;;4927997;28;36684;-78
2023/02/26 12:56:58;;;;;;;2.30;0.50;;;7.60;99.90;;;;;;4952337;28;37668;-78
2023/02/26 12:59:44;;;;;;;3.80;0.40;;;7.30;99.90;;;;;;4954780;28;38991;-78
2023/02/26 13:02:35;;;;;;;2.07;0.40;;;7.20;99.90;;;;;;4946138;28;38597;-78
2023/02/26 13:05:26;;;;;;;0.63;0.40;;;7.40;99.90;;;;;;4947227;28;36996;-78
2023/02/26 13:08:05;;;;;;;2.87;0.80;;;7.60;99.90;;;;;;4935709;28;47373;-78
2023/02/26 13:10:55;;;;;;;4.73;1.13;;;7.70;99.90;;;;;;4930216;28;47144;-78
2023/02/26 13:13:59;;;;;;;3.80;1.57;;;7.80;99.90;;;;;;4952636;28;39558;-78
2023/02/26 13:16:44;;;;;;;2.43;0.70;;;7.70;99.90;;;;;;4952492;28;37899;-78
2023/02/26 13:19:21;;;;;;;2.20;0.57;;;7.60;99.90;;;;;;4953772;28;37245;-78
2023/02/26 13:21:59;;;;;;;2.23;0.53;;;8.00;99.90;;;;;;4953264;28;38640;-78
2023/02/26 13:24:37;;;;;;;2.30;0.67;;;8.30;99.90;;;;;;4947998;28;38501;-78
2023/02/26 13:27:04;;;;;;;6.73;1.70;;;8.40;99.90;;;;;;4951124;28;38539;-77